WSSS

Singapore Changi International Airport

Singapore, Singapore
METAR WSSS 190900Z 18008KT 160V230 9999 SCT018 FEW018TCU BKN280 30/25 Q1007 NOSIG
Observed Flight Rules
Jul-19 @ 09:00 UTC (37 minutes ago) Visual Flight Rules
Wind Visibility Clouds
180° at 8 knots 10,000+ meters
  • Scattered at 1,800' AGL
  • Few at 1,800' AGL
  • Broken at 28,000' AGL
Temperatures Readings
Current 30°C / 86°F
Dewpoint 25°C / 77°F
Humidity 75%
Altimeter 29.73" Hg
Pressure 1007 hPa
Elevation 16
METAR WSSS 190900Z 18008KT 160V230 9999 SCT018 FEW018TCU BKN280 30/25 Q1007 NOSIG
Observed Flight Rules
Jul-19 @ 09:00 UTC
(37 minutes ago)
VFR
Wind Visibility
180° at 8 knots 10,000+ meters
Clouds
  • Scattered at 1,800' AGL
  • Few at 1,800' AGL
  • Broken at 28,000' AGL
Temperature Dewpoint
30°C / 86°F 25°C / 77°F
Humidity Altimeter Pressure
75% 29.73" Hg 1007 hPa